Time;durP1;ratioP1;P1;durP2;ratioP2;P2;SDS_P1;SDS_P2;PMS_P1;PMS_P2;Temp;Humidity;BMP_temperature;BMP_pressure;BME280_temperature;BME280_humidity;BME280_pressure;Samples;Min_cycle;Max_cycle;Signal;HPM_P1;HPM_P2
2023/07/29 00:00:34;;;;;;;10.52;7.53;;;18.40;99.90;;;;;;4986380;28;20045;-84
2023/07/29 00:02:59;;;;;;;10.00;7.45;;;18.30;99.90;;;;;;5024205;28;20415;-84
2023/07/29 00:05:25;;;;;;;10.63;7.97;;;;;;;;;;5003054;28;20418;-84
2023/07/29 00:07:51;;;;;;;8.02;6.72;;;;;;;;;;5003902;28;20779;-84
2023/07/29 00:10:17;;;;;;;10.57;7.25;;;;;;;;;;5007739;28;20041;-84
2023/07/29 00:12:43;;;;;;;7.60;6.22;;;;;;;;;;5007221;28;20495;-84
2023/07/29 00:15:09;;;;;;;9.60;6.82;;;18.20;99.90;;;;;;5005073;28;20041;-84
2023/07/29 00:17:35;;;;;;;11.35;7.32;;;18.20;99.90;;;;;;5007792;28;20037;-84
2023/07/29 00:20:01;;;;;;;9.02;6.88;;;18.20;99.90;;;;;;5023599;28;20753;-84
2023/07/29 00:22:26;;;;;;;9.00;6.43;;;;;;;;;;5008137;28;20469;-84
2023/07/29 00:24:57;;;;;;;7.93;6.65;;;18.20;99.90;;;;;;5026708;28;20493;-84
2023/07/29 00:27:23;;;;;;;9.57;7.63;;;;;;;;;;4992826;28;20595;-84
2023/07/29 00:29:49;;;;;;;10.77;7.18;;;;;;;;;;5010963;28;20172;-84
2023/07/29 00:32:15;;;;;;;10.98;7.65;;;18.10;99.90;;;;;;5029550;28;20040;-84
2023/07/29 00:34:41;;;;;;;9.43;7.40;;;18.20;99.90;;;;;;5008426;28;20435;-84
2023/07/29 00:37:06;;;;;;;10.00;6.40;;;18.10;99.90;;;;;;5011888;28;20033;-84
2023/07/29 00:39:32;;;;;;;11.13;6.75;;;;;;;;;;5011274;28;20049;-84
2023/07/29 00:41:59;;;;;;;11.30;7.38;;;;;;;;;;4995065;28;20041;-84
2023/07/29 00:44:25;;;;;;;9.15;6.75;;;;;;;;;;5011037;28;20041;-84
2023/07/29 00:46:52;;;;;;;10.30;6.85;;;18.00;99.90;;;;;;4988086;28;20124;-84
2023/07/29 00:49:19;;;;;;;9.45;7.07;;;17.80;99.90;;;;;;5028326;28;20400;-84
2023/07/29 00:51:45;;;;;;;12.00;7.40;;;17.90;99.90;;;;;;5024364;28;20048;-84
2023/07/29 00:54:11;;;;;;;12.35;7.57;;;17.90;99.90;;;;;;5005007;28;20918;-84
2023/07/29 00:56:37;;;;;;;10.63;7.25;;;17.90;99.90;;;;;;4992529;28;20080;-84
2023/07/29 00:59:04;;;;;;;9.30;7.05;;;17.90;99.90;;;;;;5010787;28;20050;-84
2023/07/29 01:01:30;;;;;;;11.38;7.13;;;17.80;99.90;;;;;;5027546;28;20051;-84
2023/07/29 01:03:56;;;;;;;9.93;7.20;;;17.70;99.90;;;;;;5028438;28;20103;-84
2023/07/29 01:06:53;;;;;;;9.50;7.20;;;17.80;99.90;;;;;;5010758;28;20380;-84
2023/07/29 01:10:05;;;;;;;12.27;7.00;;;17.90;99.90;;;;;;5010705;28;20051;-84
2023/07/29 01:12:56;;;;;;;11.45;7.05;;;17.70;99.90;;;;;;4946188;28;20046;-84
2023/07/29 01:15:26;;;;;;;10.63;6.75;;;17.70;99.90;;;;;;4989619;28;20087;-84
2023/07/29 01:18:01;;;;;;;13.65;7.35;;;17.70;99.90;;;;;;5019840;28;20039;-84
2023/07/29 01:20:28;;;;;;;10.40;6.88;;;17.70;99.90;;;;;;5023788;28;20083;-84
2023/07/29 01:22:54;;;;;;;11.48;7.45;;;;;;;;;;5004330;28;20048;-84
2023/07/29 01:25:20;;;;;;;8.48;7.22;;;17.70;99.90;;;;;;5010448;28;20038;-84
2023/07/29 01:27:51;;;;;;;9.52;7.15;;;17.50;99.90;;;;;;4987861;28;20048;-84
2023/07/29 01:30:17;;;;;;;11.13;7.03;;;17.50;99.90;;;;;;5010646;28;20037;-84
2023/07/29 01:33:01;;;;;;;10.23;7.90;;;17.40;99.90;;;;;;5023813;28;20041;-84
2023/07/29 01:35:47;;;;;;;8.45;6.63;;;17.50;99.90;;;;;;5008926;28;20040;-84
2023/07/29 01:38:35;;;;;;;11.45;7.65;;;17.50;99.90;;;;;;4993970;28;20053;-84
2023/07/29 01:41:07;;;;;;;9.00;6.75;;;17.40;99.90;;;;;;4990910;28;20526;-84
2023/07/29 01:43:33;;;;;;;13.15;7.03;;;;;;;;;;5027672;28;20463;-84
2023/07/29 01:46:01;;;;;;;8.93;7.18;;;17.30;99.90;;;;;;4989604;28;20041;-84
2023/07/29 01:48:27;;;;;;;14.07;7.13;;;17.70;99.90;;;;;;5023557;28;20049;-84
2023/07/29 01:50:53;;;;;;;8.85;7.07;;;;;;;;;;4993425;28;20124;-84
2023/07/29 01:53:19;;;;;;;12.65;7.80;;;;;;;;;;5008902;28;20145;-84
2023/07/29 01:55:45;;;;;;;13.45;7.82;;;;;;;;;;5026871;28;20207;-84
2023/07/29 01:58:11;;;;;;;10.88;7.53;;;;;;;;;;5006747;28;20050;-84
2023/07/29 02:00:37;;;;;;;10.60;6.90;;;17.40;99.90;;;;;;4987098;28;20045;-84
2023/07/29 02:03:03;;;;;;;12.07;7.40;;;;;;;;;;5003043;28;20045;-84
2023/07/29 02:05:29;;;;;;;9.40;7.15;;;;;;;;;;4989021;28;20041;-84
2023/07/29 02:07:55;;;;;;;13.93;7.35;;;;;;;;;;4992392;28;20045;-84
2023/07/29 02:10:21;;;;;;;10.88;7.07;;;;;;;;;;4993839;28;20049;-84
2023/07/29 02:12:47;;;;;;;10.02;7.43;;;17.30;99.90;;;;;;5014343;28;20141;-84
2023/07/29 02:15:12;;;;;;;11.50;7.72;;;17.20;99.90;;;;;;5020403;28;20057;-84
2023/07/29 02:17:41;;;;;;;10.60;6.47;;;17.40;99.90;;;;;;4990333;28;20086;-84
2023/07/29 02:20:08;;;;;;;13.57;7.72;;;17.20;99.90;;;;;;5006106;28;20495;-84
2023/07/29 02:22:34;;;;;;;11.52;6.68;;;;;;;;;;5004446;28;20053;-84
2023/07/29 02:25:00;;;;;;;10.63;6.70;;;;;;;;;;5006006;28;20448;-84
2023/07/29 02:27:27;;;;;;;10.70;7.20;;;17.20;99.90;;;;;;5003618;28;20446;-84
2023/07/29 02:29:53;;;;;;;9.13;6.10;;;17.00;99.90;;;;;;5002818;28;20045;-84
2023/07/29 02:32:19;;;;;;;10.30;5.93;;;;;;;;;;5007318;28;20152;-84
2023/07/29 02:34:44;;;;;;;8.55;6.50;;;17.30;99.90;;;;;;5005801;28;20467;-84
2023/07/29 02:37:10;;;;;;;12.35;5.90;;;;;;;;;;5007826;28;20107;-84
2023/07/29 02:39:36;;;;;;;8.45;5.97;;;17.20;99.90;;;;;;4988072;28;20107;-84
2023/07/29 02:42:02;;;;;;;9.75;5.60;;;17.20;99.90;;;;;;5004792;28;20045;-84
2023/07/29 02:44:28;;;;;;;9.55;5.30;;;17.40;99.90;;;;;;5004446;28;20030;-84
2023/07/29 02:46:55;;;;;;;8.77;5.00;;;;;;;;;;5001749;28;20052;-83
2023/07/29 02:49:21;;;;;;;9.23;5.30;;;;;;;;;;4988707;28;20045;-84
2023/07/29 02:51:47;;;;;;;11.55;5.20;;;17.20;99.90;;;;;;5008573;28;20045;-84
2023/07/29 02:54:13;;;;;;;9.82;4.85;;;;;;;;;;5002759;28;20041;-84
2023/07/29 02:56:39;;;;;;;6.65;4.30;;;;;;;;;;5004288;28;20037;-84
2023/07/29 02:59:05;;;;;;;7.63;4.65;;;17.00;99.90;;;;;;4985622;28;20408;-84
2023/07/29 03:01:31;;;;;;;8.38;4.13;;;;;;;;;;5007077;28;20048;-84
2023/07/29 03:03:57;;;;;;;7.13;4.35;;;;;;;;;;5005454;28;20049;-84
2023/07/29 03:06:23;;;;;;;7.30;3.83;;;;;;;;;;4990441;28;20040;-84
2023/07/29 03:08:48;;;;;;;8.50;4.20;;;17.20;99.90;;;;;;5023346;28;20041;-84
2023/07/29 03:11:15;;;;;;;6.75;3.92;;;17.20;99.90;;;;;;5005847;28;20574;-84
2023/07/29 03:13:41;;;;;;;5.78;3.30;;;;;;;;;;4999385;28;20087;-84
2023/07/29 03:16:17;;;;;;;5.65;3.53;;;16.90;99.90;;;;;;5007480;28;20052;-84
2023/07/29 03:18:43;;;;;;;7.60;3.45;;;17.20;99.90;;;;;;5006727;28;20053;-84
2023/07/29 03:21:10;;;;;;;6.75;3.40;;;17.00;99.90;;;;;;5025120;28;20037;-84
2023/07/29 03:23:36;;;;;;;5.93;3.35;;;17.20;99.90;;;;;;4998698;28;20049;-84
2023/07/29 03:26:09;;;;;;;9.50;3.72;;;17.10;99.90;;;;;;5006879;28;20045;-84
2023/07/29 03:28:37;;;;;;;6.20;3.40;;;16.80;99.90;;;;;;5020004;28;20179;-84
2023/07/29 03:31:03;;;;;;;5.57;3.35;;;;;;;;;;4987585;28;20151;-84
2023/07/29 03:33:29;;;;;;;7.78;3.53;;;17.10;99.90;;;;;;5006555;28;20060;-84
2023/07/29 03:35:55;;;;;;;6.93;3.40;;;;;;;;;;5023828;28;20037;-84
2023/07/29 03:38:21;;;;;;;5.95;3.38;;;17.10;99.90;;;;;;5023722;28;21544;-84
2023/07/29 03:40:47;;;;;;;5.72;3.13;;;;;;;;;;5003932;28;20116;-84
2023/07/29 03:43:13;;;;;;;5.50;3.08;;;;;;;;;;4982804;28;20099;-84
2023/07/29 03:45:40;;;;;;;6.57;3.10;;;16.90;99.90;;;;;;4990046;28;20041;-84
2023/07/29 03:48:05;;;;;;;6.50;2.83;;;;;;;;;;5006640;28;20045;-84
2023/07/29 03:50:35;;;;;;;5.63;3.00;;;16.80;99.90;;;;;;5015783;28;20464;-84
2023/07/29 03:53:00;;;;;;;4.65;2.92;;;;;;;;;;4990875;28;20110;-84
2023/07/29 03:55:26;;;;;;;6.30;2.70;;;16.80;99.90;;;;;;5004526;28;20033;-84
2023/07/29 03:57:52;;;;;;;5.65;2.42;;;;;;;;;;4997733;28;20068;-84
2023/07/29 04:00:18;;;;;;;5.60;2.67;;;;;;;;;;5023012;28;20060;-84
2023/07/29 04:02:45;;;;;;;6.00;3.40;;;16.80;99.90;;;;;;4990268;28;20046;-84
2023/07/29 04:05:11;;;;;;;5.05;2.70;;;;;;;;;;4989726;28;20064;-84
2023/07/29 04:07:37;;;;;;;6.43;2.88;;;;;;;;;;5002610;28;20052;-84
2023/07/29 04:10:04;;;;;;;7.28;2.45;;;16.80;99.90;;;;;;5004673;28;20049;-84
2023/07/29 04:12:30;;;;;;;6.45;2.42;;;16.80;99.90;;;;;;4989513;28;20080;-84
2023/07/29 04:14:56;;;;;;;6.15;2.92;;;16.70;99.90;;;;;;5001333;28;20053;-84
2023/07/29 04:17:22;;;;;;;4.55;2.80;;;16.50;99.90;;;;;;4981361;28;20546;-84
2023/07/29 04:19:48;;;;;;;4.30;2.63;;;;;;;;;;4993527;28;20050;-84
2023/07/29 04:22:15;;;;;;;6.00;2.38;;;16.70;99.90;;;;;;5004451;28;20410;-84
2023/07/29 04:24:41;;;;;;;5.88;2.22;;;;;;;;;;5025084;28;20081;-84
2023/07/29 04:27:06;;;;;;;5.80;2.30;;;16.80;99.90;;;;;;5005516;28;20084;-84
2023/07/29 04:29:32;;;;;;;3.03;1.90;;;16.90;99.90;;;;;;5006491;28;20127;-84
2023/07/29 04:31:58;;;;;;;4.15;2.03;;;;;;;;;;5005728;28;20037;-84
2023/07/29 04:34:24;;;;;;;3.28;1.70;;;;;;;;;;5006720;28;20444;-84
2023/07/29 04:36:49;;;;;;;2.72;1.75;;;16.90;99.90;;;;;;4998491;28;20119;-84
2023/07/29 04:39:15;;;;;;;7.43;2.40;;;16.80;99.90;;;;;;5002645;28;20052;-84
2023/07/29 04:41:41;;;;;;;4.57;2.83;;;;;;;;;;5005247;28;20139;-84
2023/07/29 04:44:07;;;;;;;5.25;2.17;;;16.80;99.90;;;;;;5008103;28;20033;-84
2023/07/29 04:46:33;;;;;;;4.30;1.50;;;16.80;99.90;;;;;;4987705;28;20504;-84
2023/07/29 04:48:59;;;;;;;4.07;1.63;;;;;;;;;;5022944;28;20113;-84
2023/07/29 04:51:24;;;;;;;4.47;2.17;;;16.90;99.90;;;;;;5004638;28;20621;-84
2023/07/29 04:53:50;;;;;;;3.83;1.55;;;16.90;99.90;;;;;;5017694;28;20029;-84
2023/07/29 04:56:16;;;;;;;9.60;2.05;;;;;;;;;;5001972;28;20338;-84
2023/07/29 04:58:42;;;;;;;6.93;2.60;;;16.90;99.90;;;;;;5022396;28;20531;-84
2023/07/29 05:01:08;;;;;;;5.78;2.08;;;16.80;99.90;;;;;;5004956;28;20056;-84
2023/07/29 05:03:34;;;;;;;5.22;1.35;;;;;;;;;;5006283;28;20045;-84
2023/07/29 05:06:00;;;;;;;6.90;1.95;;;;;;;;;;4992936;28;20121;-84
2023/07/29 05:08:26;;;;;;;7.45;1.88;;;17.00;99.90;;;;;;5005969;28;20041;-84
2023/07/29 05:10:53;;;;;;;2.97;1.67;;;16.90;99.90;;;;;;5005366;28;20179;-84
2023/07/29 05:13:19;;;;;;;3.55;1.73;;;;;;;;;;5027148;28;20041;-84
2023/07/29 05:15:45;;;;;;;7.13;2.33;;;16.90;99.90;;;;;;5009346;28;20471;-84
2023/07/29 05:18:11;;;;;;;3.53;1.80;;;;;;;;;;5009909;28;20046;-84
2023/07/29 05:20:36;;;;;;;8.40;1.73;;;16.80;99.90;;;;;;5010660;28;20041;-84
2023/07/29 05:23:02;;;;;;;3.05;1.40;;;;;;;;;;5008668;28;20473;-84
2023/07/29 05:25:29;;;;;;;4.88;2.60;;;16.90;99.90;;;;;;5002063;28;20040;-84
2023/07/29 05:27:55;;;;;;;4.93;1.98;;;;;;;;;;4984975;28;20095;-84
2023/07/29 05:30:20;;;;;;;3.38;1.77;;;17.00;99.90;;;;;;5010017;28;20049;-84
2023/07/29 05:32:46;;;;;;;5.25;1.83;;;;;;;;;;5008611;28;20049;-84
2023/07/29 05:35:12;;;;;;;5.30;1.85;;;;;;;;;;5002268;28;20081;-84
2023/07/29 05:37:39;;;;;;;7.45;2.00;;;16.90;99.90;;;;;;4993449;28;20486;-84
2023/07/29 05:40:06;;;;;;;4.22;1.73;;;17.00;99.90;;;;;;5027304;28;20553;-84
2023/07/29 05:42:32;;;;;;;7.88;2.60;;;16.90;99.90;;;;;;5007132;28;20042;-84
2023/07/29 05:44:58;;;;;;;9.25;2.53;;;;;;;;;;5027138;28;20037;-84
2023/07/29 05:47:24;;;;;;;4.60;2.30;;;;;;;;;;4991625;28;20391;-84
2023/07/29 05:49:50;;;;;;;9.73;2.83;;;;;;;;;;4988277;28;20045;-84
2023/07/29 05:52:16;;;;;;;5.13;2.20;;;17.10;99.90;;;;;;5003919;28;20041;-84
2023/07/29 05:54:42;;;;;;;7.75;2.70;;;17.10;99.90;;;;;;4991608;28;20328;-84
2023/07/29 05:57:09;;;;;;;4.35;1.92;;;17.30;99.90;;;;;;5025099;28;20049;-84
2023/07/29 05:59:35;;;;;;;8.02;2.72;;;;;;;;;;4992264;28;20084;-84
2023/07/29 06:02:01;;;;;;;6.22;2.42;;;;;;;;;;5005620;28;20042;-84
2023/07/29 06:04:27;;;;;;;7.20;2.90;;;;;;;;;;4990664;28;20087;-84
2023/07/29 06:06:55;;;;;;;8.95;2.92;;;;;;;;;;5007258;28;20133;-84
2023/07/29 06:09:21;;;;;;;5.97;2.70;;;;;;;;;;5026355;28;20099;-84
2023/07/29 06:11:46;;;;;;;6.00;2.78;;;17.70;99.90;;;;;;5002839;28;20045;-84
2023/07/29 06:14:12;;;;;;;6.72;2.92;;;17.70;99.90;;;;;;4992239;28;20051;-84
2023/07/29 06:16:38;;;;;;;7.25;3.00;;;18.50;99.90;;;;;;5000682;28;20148;-84
2023/07/29 06:19:04;;;;;;;5.68;2.03;;;;;;;;;;5001724;28;20045;-84
2023/07/29 06:21:29;;;;;;;6.57;2.25;;;20.20;99.90;;;;;;5004080;28;20515;-84
2023/07/29 06:23:55;;;;;;;7.18;2.55;;;20.50;99.90;;;;;;5003025;28;20042;-84
2023/07/29 06:26:20;;;;;;;7.28;2.50;;;22.40;99.90;;;;;;4991661;28;20092;-84
2023/07/29 06:28:46;;;;;;;5.50;2.70;;;19.90;99.90;;;;;;5005140;28;20052;-84
2023/07/29 06:31:11;;;;;;;7.22;2.40;;;19.70;99.90;;;;;;5024851;28;20049;-84
2023/07/29 06:33:37;;;;;;;8.27;2.30;;;19.40;99.90;;;;;;5005309;28;20415;-84
2023/07/29 06:36:03;;;;;;;8.82;3.28;;;19.10;99.90;;;;;;5009320;28;20041;-84
2023/07/29 06:38:28;;;;;;;8.15;3.15;;;19.10;99.90;;;;;;5003778;28;20038;-84
2023/07/29 06:40:54;;;;;;;4.95;3.00;;;;;;;;;;5022291;28;20406;-84
2023/07/29 06:43:20;;;;;;;5.50;2.50;;;19.10;99.90;;;;;;5006819;28;20144;-84
2023/07/29 06:45:45;;;;;;;11.88;3.20;;;19.20;99.90;;;;;;4983642;28;20574;-84
2023/07/29 06:48:11;;;;;;;7.18;3.10;;;;;;;;;;4998372;28;20164;-84
2023/07/29 06:50:37;;;;;;;8.38;3.53;;;20.00;99.90;;;;;;5020418;28;20045;-84
2023/07/29 06:53:03;;;;;;;6.85;3.13;;;20.00;99.90;;;;;;5003055;28;20041;-84
2023/07/29 06:55:28;;;;;;;6.38;2.95;;;19.80;99.90;;;;;;5006013;28;20029;-84
2023/07/29 06:57:54;;;;;;;8.15;3.10;;;;;;;;;;4985565;28;20508;-84
2023/07/29 07:00:20;;;;;;;8.95;2.80;;;19.40;99.90;;;;;;5023801;28;20521;-84
2023/07/29 07:02:46;;;;;;;8.60;3.00;;;19.10;99.90;;;;;;5004020;28;20495;-84
2023/07/29 07:05:11;;;;;;;7.63;3.17;;;;;;;;;;5004354;28;20103;-84
2023/07/29 07:07:37;;;;;;;10.02;3.25;;;18.70;99.90;;;;;;5005881;28;20129;-84
2023/07/29 07:10:03;;;;;;;7.88;3.42;;;18.70;99.90;;;;;;4990469;28;20038;-84
2023/07/29 07:12:29;;;;;;;10.18;3.13;;;;;;;;;;5007477;28;20038;-86
2023/07/29 07:14:55;;;;;;;7.85;3.38;;;18.60;99.90;;;;;;4992282;28;20380;-84
2023/07/29 07:17:21;;;;;;;11.15;3.47;;;18.70;99.90;;;;;;4987284;28;20102;-84
2023/07/29 07:19:47;;;;;;;9.85;3.95;;;;;;;;;;5006594;28;20443;-84
2023/07/29 07:22:12;;;;;;;12.20;3.65;;;18.60;99.90;;;;;;5001618;28;20141;-84
2023/07/29 07:24:38;;;;;;;9.18;3.30;;;18.50;99.90;;;;;;5008342;28;20140;-85
2023/07/29 07:27:04;;;;;;;8.65;3.92;;;18.60;99.90;;;;;;4992859;28;20055;-84
2023/07/29 07:29:30;;;;;;;8.45;3.38;;;;;;;;;;4990519;28;20136;-84
2023/07/29 07:31:56;;;;;;;11.10;4.00;;;18.60;99.90;;;;;;5008686;28;20063;-84
2023/07/29 07:34:22;;;;;;;10.82;4.07;;;18.40;99.90;;;;;;5005726;28;20069;-84
2023/07/29 07:36:48;;;;;;;9.00;3.65;;;18.60;99.90;;;;;;5024583;28;20037;-84
2023/07/29 07:39:14;;;;;;;10.25;3.42;;;18.70;99.90;;;;;;5004958;28;20059;-84
2023/07/29 07:41:41;;;;;;;8.35;4.00;;;18.60;99.90;;;;;;4985574;28;20041;-84
2023/07/29 07:44:07;;;;;;;9.23;3.90;;;;;;;;;;5004287;28;20076;-84
2023/07/29 07:46:36;;;;;;;9.65;3.75;;;18.80;99.90;;;;;;5000065;28;20467;-84
2023/07/29 07:49:01;;;;;;;11.23;3.83;;;18.90;99.90;;;;;;4989411;28;20033;-84
2023/07/29 07:51:27;;;;;;;9.55;4.68;;;;;;;;;;5023054;28;20060;-84
2023/07/29 07:53:53;;;;;;;6.85;3.65;;;;;;;;;;5001445;28;20072;-84
2023/07/29 07:56:19;;;;;;;6.97;3.70;;;19.20;99.90;;;;;;5025421;28;20034;-84
2023/07/29 07:58:44;;;;;;;7.03;3.65;;;19.40;99.90;;;;;;5023109;28;20045;-84
2023/07/29 08:01:11;;;;;;;9.05;3.47;;;19.60;99.90;;;;;;5006675;28;20115;-84
2023/07/29 08:03:36;;;;;;;8.77;3.83;;;19.60;99.90;;;;;;4996996;28;20081;-84
2023/07/29 08:06:03;;;;;;;8.25;2.95;;;;;;;;;;4991507;28;20087;-84
2023/07/29 08:08:28;;;;;;;6.80;3.20;;;19.30;99.90;;;;;;5021243;28;20124;-84
2023/07/29 08:10:56;;;;;;;6.68;3.15;;;19.30;99.90;;;;;;4984699;28;20438;-84
2023/07/29 08:13:22;;;;;;;13.90;4.22;;;19.20;99.90;;;;;;5016900;28;20041;-84
2023/07/29 08:15:49;;;;;;;8.77;3.63;;;19.40;99.90;;;;;;4995988;28;20052;-84
2023/07/29 08:18:15;;;;;;;10.90;4.43;;;19.60;99.90;;;;;;4995795;28;20038;-84
2023/07/29 08:20:41;;;;;;;8.85;3.53;;;19.80;99.90;;;;;;4994625;28;20049;-84
2023/07/29 08:23:07;;;;;;;6.20;3.25;;;20.00;99.90;;;;;;4993623;28;20092;-84
2023/07/29 08:25:34;;;;;;;17.23;4.07;;;;;;;;;;5004078;28;20053;-84
2023/07/29 08:27:59;;;;;;;6.50;3.50;;;19.90;99.90;;;;;;4977567;28;20038;-84
2023/07/29 08:30:25;;;;;;;6.45;3.55;;;;;;;;;;4979454;28;20038;-84
2023/07/29 08:32:51;;;;;;;6.38;3.00;;;19.90;99.90;;;;;;5000890;28;20200;-84
2023/07/29 08:35:16;;;;;;;9.40;3.47;;;19.80;99.90;;;;;;4990261;28;20095;-84
2023/07/29 08:37:42;;;;;;;6.53;3.03;;;;;;;;;;4986753;28;20045;-84
2023/07/29 08:40:08;;;;;;;8.82;3.00;;;;;;;;;;5020264;28;20179;-84
2023/07/29 08:42:36;;;;;;;6.45;3.05;;;19.90;99.90;;;;;;5004026;28;20499;-84
2023/07/29 08:45:07;;;;;;;5.70;2.55;;;20.00;99.90;;;;;;5001162;28;20042;-84
2023/07/29 08:47:33;;;;;;;7.75;3.22;;;20.30;99.90;;;;;;5006810;28;20064;-84
2023/07/29 08:50:01;;;;;;;7.35;2.80;;;20.20;99.90;;;;;;4988721;28;20424;-84
2023/07/29 08:52:27;;;;;;;5.75;3.00;;;20.40;99.90;;;;;;5008244;28;20136;-84
2023/07/29 08:54:52;;;;;;;7.53;2.72;;;20.40;99.90;;;;;;5005602;28;20484;-84
2023/07/29 08:57:20;;;;;;;5.10;2.58;;;20.30;99.90;;;;;;5027294;28;20049;-84
2023/07/29 08:59:45;;;;;;;6.53;3.80;;;20.30;99.90;;;;;;5005568;28;20045;-84
2023/07/29 09:02:11;;;;;;;7.97;2.75;;;20.30;99.90;;;;;;5002885;28;20034;-84
2023/07/29 09:04:37;;;;;;;7.88;2.75;;;20.10;99.90;;;;;;5015041;28;20038;-84
2023/07/29 09:07:04;;;;;;;6.00;2.33;;;20.00;99.90;;;;;;4986243;28;20042;-84
2023/07/29 09:09:30;;;;;;;8.63;2.85;;;20.00;99.90;;;;;;5003192;28;20558;-85
2023/07/29 09:11:55;;;;;;;3.88;2.80;;;20.10;99.90;;;;;;4984120;28;20045;-84
2023/07/29 09:14:21;;;;;;;7.13;3.33;;;20.20;99.90;;;;;;5009290;28;20033;-84
2023/07/29 09:16:47;;;;;;;10.20;2.78;;;20.30;99.90;;;;;;5024614;28;20037;-84
2023/07/29 09:19:12;;;;;;;6.50;2.75;;;20.40;99.90;;;;;;5003474;28;20041;-85
2023/07/29 09:21:40;;;;;;;7.47;4.00;;;20.40;99.90;;;;;;4992790;28;20045;-85
2023/07/29 09:24:07;;;;;;;8.20;3.00;;;20.50;99.90;;;;;;5003472;28;20050;-84
2023/07/29 09:26:32;;;;;;;6.13;2.85;;;20.30;99.90;;;;;;4993965;28;20049;-84
2023/07/29 09:28:59;;;;;;;9.25;3.17;;;20.80;99.90;;;;;;4982892;28;20385;-84
2023/07/29 09:31:27;;;;;;;5.57;2.95;;;20.70;99.90;;;;;;5025187;28;20115;-84
2023/07/29 09:33:58;;;;;;;6.60;3.20;;;20.70;99.90;;;;;;5002807;28;20046;-84
2023/07/29 09:36:23;;;;;;;5.75;2.47;;;20.90;99.90;;;;;;5002760;28;20411;-85
2023/07/29 09:38:56;;;;;;;7.90;2.33;;;20.80;99.90;;;;;;5005207;28;20042;-84
2023/07/29 09:41:26;;;;;;;6.57;1.70;;;20.70;99.90;;;;;;5003068;28;20042;-84
2023/07/29 09:44:00;;;;;;;6.63;2.42;;;21.10;99.90;;;;;;5008463;28;20053;-85
2023/07/29 09:46:35;;;;;;;7.75;1.60;;;21.00;99.90;;;;;;4988808;28;20423;-85
2023/07/29 09:49:06;;;;;;;6.13;1.90;;;21.20;99.90;;;;;;5001968;28;20060;-84
2023/07/29 09:51:36;;;;;;;4.45;1.10;;;21.00;99.90;;;;;;4991197;28;20099;-85
2023/07/29 09:54:02;;;;;;;3.30;1.10;;;21.20;99.90;;;;;;4989378;28;20073;-84
2023/07/29 09:56:29;;;;;;;3.95;1.00;;;21.00;99.90;;;;;;5005228;28;20037;-85
2023/07/29 09:58:58;;;;;;;9.70;2.58;;;21.20;99.90;;;;;;5009280;28;20127;-84
2023/07/29 10:01:24;;;;;;;6.28;1.40;;;21.00;99.90;;;;;;4989147;28;20068;-85
2023/07/29 10:03:50;;;;;;;5.03;1.30;;;21.00;99.90;;;;;;5023965;28;20044;-84
2023/07/29 10:06:17;;;;;;;6.07;1.17;;;20.90;99.90;;;;;;5026143;28;20491;-85
2023/07/29 10:08:43;;;;;;;7.28;1.08;;;21.00;99.90;;;;;;5004983;28;20050;-84
2023/07/29 10:11:10;;;;;;;4.30;1.40;;;21.00;99.90;;;;;;5006753;28;20037;-84
2023/07/29 10:13:37;;;;;;;4.88;1.27;;;20.70;99.90;;;;;;4985829;28;20041;-85
2023/07/29 10:16:04;;;;;;;7.10;1.48;;;21.20;99.90;;;;;;5004581;28;20044;-84
2023/07/29 10:18:31;;;;;;;7.10;1.27;;;20.90;99.90;;;;;;5000967;28;20593;-85
2023/07/29 10:20:58;;;;;;;4.07;0.93;;;20.90;99.90;;;;;;5001177;28;20453;-84
2023/07/29 10:23:26;;;;;;;6.25;1.15;;;20.80;99.90;;;;;;4990297;28;20495;-84
2023/07/29 10:26:05;;;;;;;3.10;0.95;;;20.60;99.90;;;;;;4984141;28;20053;-84
2023/07/29 10:28:32;;;;;;;7.57;1.00;;;20.40;99.90;;;;;;5005052;28;20466;-84
2023/07/29 10:30:58;;;;;;;3.47;0.90;;;20.40;99.90;;;;;;5020561;28;20085;-84
2023/07/29 10:33:24;;;;;;;4.70;1.17;;;20.40;99.90;;;;;;4995906;28;20470;-83
2023/07/29 10:35:52;;;;;;;3.53;0.98;;;20.50;99.90;;;;;;5024339;28;20041;-84
2023/07/29 10:38:19;;;;;;;6.45;1.00;;;20.60;99.90;;;;;;5006516;28;20045;-84
2023/07/29 10:40:51;;;;;;;4.07;1.02;;;20.50;99.90;;;;;;5002735;28;20099;-84
2023/07/29 10:43:25;;;;;;;3.90;1.10;;;20.50;99.90;;;;;;4997947;28;20143;-84
2023/07/29 10:45:51;;;;;;;5.50;1.10;;;20.40;99.90;;;;;;5002525;28;20053;-84
2023/07/29 10:48:32;;;;;;;5.32;1.10;;;20.40;99.90;;;;;;5003331;28;20037;-87
2023/07/29 10:51:29;;;;;;;4.03;0.90;;;20.30;99.90;;;;;;5006263;28;20042;-84
2023/07/29 10:53:57;;;;;;;3.58;1.20;;;20.50;99.90;;;;;;5008116;28;20072;-85
2023/07/29 10:56:28;;;;;;;4.25;1.38;;;20.30;99.90;;;;;;5002230;28;20053;-86
2023/07/29 10:59:02;;;;;;;3.80;0.80;;;20.50;99.90;;;;;;5002483;28;20076;-84
2023/07/29 11:01:29;;;;;;;4.95;1.10;;;20.60;99.90;;;;;;4982231;28;20052;-84
2023/07/29 11:04:20;;;;;;;3.47;1.10;;;20.50;99.90;;;;;;5005651;28;20051;-84
2023/07/29 11:07:04;;;;;;;6.13;1.35;;;20.70;99.90;;;;;;5000089;28;20056;-84
2023/07/29 11:09:49;;;;;;;6.47;1.63;;;20.80;99.90;;;;;;5007570;28;20034;-84
2023/07/29 11:12:37;;;;;;;3.92;1.60;;;21.00;99.90;;;;;;5004519;28;20503;-85
2023/07/29 11:15:28;;;;;;;4.53;1.67;;;21.00;99.90;;;;;;5006671;28;20120;-84
2023/07/29 11:17:55;;;;;;;6.25;2.10;;;21.10;99.90;;;;;;4983908;28;20038;-85
2023/07/29 11:20:26;;;;;;;4.32;1.48;;;20.80;99.90;;;;;;5003756;28;20053;-85
2023/07/29 11:22:57;;;;;;;6.70;1.70;;;21.00;99.90;;;;;;5003793;28;20148;-84
2023/07/29 11:25:24;;;;;;;8.63;1.90;;;21.10;99.90;;;;;;4998793;28;20224;-85
2023/07/29 11:27:55;;;;;;;7.55;1.58;;;21.20;99.90;;;;;;5002571;28;20545;-84
2023/07/29 11:30:23;;;;;;;5.35;3.28;;;21.30;99.90;;;;;;4990147;28;20068;-84
2023/07/29 11:32:48;;;;;;;6.28;2.30;;;21.20;99.90;;;;;;5006126;28;20045;-84
2023/07/29 11:35:16;;;;;;;5.50;2.13;;;21.10;99.90;;;;;;5015667;28;20040;-84
2023/07/29 11:37:47;;;;;;;8.82;2.17;;;22.60;99.90;;;;;;4987237;28;20117;-84
2023/07/29 11:40:18;;;;;;;5.38;1.77;;;20.70;99.90;;;;;;4979035;28;20076;-84
2023/07/29 11:42:45;;;;;;;8.18;2.92;;;20.90;99.90;;;;;;5017231;28;20514;-84
2023/07/29 11:45:11;;;;;;;5.03;1.70;;;20.80;99.90;;;;;;5001560;28;20074;-84
2023/07/29 11:47:37;;;;;;;9.05;2.28;;;21.90;99.90;;;;;;4987663;28;20128;-84
2023/07/29 11:50:09;;;;;;;8.95;1.92;;;21.00;99.90;;;;;;4999043;28;20400;-84
2023/07/29 11:52:35;;;;;;;10.15;1.90;;;21.00;99.90;;;;;;4997632;28;20041;-84
2023/07/29 11:55:03;;;;;;;7.88;1.90;;;21.60;99.90;;;;;;5005125;28;20034;-85
2023/07/29 11:57:29;;;;;;;7.60;1.58;;;21.00;99.90;;;;;;5002730;28;20135;-85
2023/07/29 11:59:55;;;;;;;5.70;1.90;;;21.40;99.90;;;;;;4996372;28;20125;-84
2023/07/29 12:02:23;;;;;;;5.90;2.35;;;21.40;99.90;;;;;;4995517;28;20930;-84
2023/07/29 12:04:49;;;;;;;5.72;2.22;;;21.10;99.90;;;;;;4978516;28;20196;-84
2023/07/29 12:07:17;;;;;;;2.80;1.77;;;22.30;99.90;;;;;;5012750;28;20551;-85
2023/07/29 12:09:43;;;;;;;7.03;1.90;;;21.20;99.90;;;;;;4997619;28;20049;-85
2023/07/29 12:12:09;;;;;;;5.38;2.10;;;21.40;99.90;;;;;;5000536;28;20566;-85
2023/07/29 12:14:35;;;;;;;7.28;1.90;;;21.30;99.90;;;;;;5002641;28;20033;-84
2023/07/29 12:17:02;;;;;;;4.50;1.45;;;21.00;99.90;;;;;;5001030;28;20073;-84
2023/07/29 12:19:36;;;;;;;6.53;1.75;;;20.90;99.90;;;;;;4998271;28;20053;-84
2023/07/29 12:22:02;;;;;;;4.50;1.65;;;20.80;99.90;;;;;;5006524;28;20037;-84
2023/07/29 12:24:30;;;;;;;5.00;1.50;;;21.20;99.90;;;;;;4981431;28;20041;-84
2023/07/29 12:26:56;;;;;;;6.03;1.90;;;21.20;99.90;;;;;;5028303;28;20045;-85
2023/07/29 12:29:22;;;;;;;4.05;1.48;;;21.00;99.90;;;;;;5005792;28;20446;-84
2023/07/29 12:31:48;;;;;;;9.90;1.88;;;21.20;99.90;;;;;;4995191;28;20072;-84
2023/07/29 12:34:19;;;;;;;5.35;1.65;;;21.50;99.90;;;;;;5001896;28;20049;-84
2023/07/29 12:36:47;;;;;;;6.28;1.70;;;21.40;99.90;;;;;;5007462;28;20084;-84
2023/07/29 12:39:22;;;;;;;6.07;1.70;;;21.20;99.90;;;;;;5004497;28;20338;-85
2023/07/29 12:41:50;;;;;;;4.80;1.63;;;21.20;99.90;;;;;;5022958;28;20037;-85
2023/07/29 12:44:15;;;;;;;6.53;1.73;;;23.30;99.90;;;;;;4999805;28;20037;-85
2023/07/29 12:46:41;;;;;;;3.78;1.23;;;21.50;99.90;;;;;;5003335;28;20038;-86
2023/07/29 12:49:07;;;;;;;3.38;1.40;;;21.50;99.90;;;;;;4982755;28;20108;-84
2023/07/29 12:51:33;;;;;;;2.92;1.02;;;21.50;99.90;;;;;;5000966;28;20050;-84
2023/07/29 12:53:58;;;;;;;4.55;1.13;;;21.50;99.90;;;;;;5018112;28;20088;-85
2023/07/29 12:56:24;;;;;;;6.03;1.50;;;23.20;99.90;;;;;;5006974;28;20447;-85
2023/07/29 12:58:50;;;;;;;5.30;1.02;;;21.50;99.90;;;;;;5009117;28;20407;-85
2023/07/29 13:01:18;;;;;;;4.50;1.05;;;21.70;99.90;;;;;;5004202;28;20041;-84
2023/07/29 13:03:44;;;;;;;3.22;0.70;;;21.70;99.90;;;;;;5024007;28;20072;-85
2023/07/29 13:06:10;;;;;;;3.28;0.75;;;23.40;99.90;;;;;;5004503;28;20084;-85
2023/07/29 13:08:36;;;;;;;2.63;1.38;;;21.80;99.90;;;;;;5026047;28;20234;-84
2023/07/29 13:11:02;;;;;;;2.50;0.60;;;22.00;99.90;;;;;;5004881;28;20053;-85